KLAA/LAA METAR and TAF weather

Enter ICAO airport designator
Station Type Date Time Source
KLAA METAR 2020/04/02 02:53 UTC NOAA

KLAA 020253Z AUTO 08004KT 10SM CLR 14/02 A2957 RMK AO2 SLP986 T01390022 53003


Station Type Date Time Source
KLAA Decoded METAR 2020/04/02 02:53 UTC NOAA

LAMAR MUNICIPAL AIRPORT, CO, United States (KLAA) 38-04N 102-41W 1119M
Apr 01, 2020 - 10:53 PM EDT / 2020.04.02 0253 UTC
Wind: from the E (080 degrees) at 5 MPH (4 KT):0
Visibility: 10 mile(s):0
Sky conditions: clear
Temperature: 57.0 F (13.9 C)
Dew Point: 36.0 F (2.2 C)
Relative Humidity: 45%
Pressure (altimeter): 29.57 in. Hg (1001 hPa)
Pressure tendency: 0.01 inches (0.3 hPa) higher than three hours ago
ob: KLAA 020253Z AUTO 08004KT 10SM CLR 14/02 A2957 RMK AO2 SLP986 T01390022 53003
cycle: 3

Station Type Date Time Source
KLAA TAF UTC NOAA

Error!

Example: see airport list